Time;durP1;ratioP1;P1;durP2;ratioP2;P2;SDS_P1;SDS_P2;PMS_P1;PMS_P2;Temp;Humidity;BMP_temperature;BMP_pressure;BME280_temperature;BME280_humidity;BME280_pressure;Samples;Min_cycle;Max_cycle;Signal;HPM_P1;HPM_P2
2022/09/17 08:08:05;;;;;;;7.95;6.28;;;;;;;13.11;100.00;97008.24;1871965;75;22740;-62
2022/09/17 08:10:33;;;;;;;6.85;5.00;;;;;;;13.17;100.00;97012.84;1853373;77;20942;-63
2022/09/17 08:13:00;;;;;;;5.85;3.60;;;;;;;13.29;100.00;97016.38;1860117;77;21108;-61
2022/09/17 08:15:28;;;;;;;5.53;3.72;;;;;;;13.37;100.00;97007.45;1848788;75;21553;-59
2022/09/17 08:17:55;;;;;;;5.10;3.77;;;;;;;13.46;100.00;97004.66;1848762;77;20879;-61
2022/09/17 08:20:23;;;;;;;5.37;3.83;;;;;;;13.55;100.00;96996.73;1846237;77;20887;-60
2022/09/17 08:22:49;;;;;;;6.53;3.20;;;;;;;13.67;100.00;96995.42;1853832;77;21444;-62
2022/09/17 08:25:16;;;;;;;5.10;2.83;;;;;;;13.81;100.00;96997.00;1850351;77;21079;-65
2022/09/17 08:27:43;;;;;;;5.30;2.85;;;;;;;13.87;98.83;97005.09;1841571;77;21394;-63
2022/09/17 08:30:10;;;;;;;5.08;3.20;;;;;;;13.94;97.35;97012.85;1850915;77;20899;-62
2022/09/17 08:32:37;;;;;;;5.55;3.65;;;;;;;14.04;96.36;97004.87;1854105;77;21027;-62
2022/09/17 08:35:16;;;;;;;5.03;2.52;;;;;;;14.11;95.75;97007.23;1844181;77;20974;-66
2022/09/17 08:37:46;;;;;;;4.62;2.42;;;;;;;14.18;94.12;97006.67;1847873;77;21108;-61
2022/09/17 08:40:16;;;;;;;6.78;2.90;;;;;;;14.21;92.65;97001.97;1827975;77;20959;-57
2022/09/17 08:42:53;;;;;;;4.62;2.77;;;;;;;14.24;92.22;97001.30;1850160;77;20920;-61
2022/09/17 08:45:20;;;;;;;4.90;2.60;;;;;;;14.29;91.88;96982.23;1777846;80;21081;-65
2022/09/17 08:47:47;;;;;;;5.35;2.85;;;;;;;14.38;91.73;96988.30;1821931;78;21532;-65
2022/09/17 08:50:31;;;;;;;5.35;2.47;;;;;;;14.44;89.69;96987.52;1819260;78;21204;-66
2022/09/17 08:53:24;;;;;;;3.47;2.70;;;;;;;14.42;88.10;96992.44;1797883;78;21011;-61
2022/09/17 08:55:57;;;;;;;3.72;2.40;;;;;;;14.40;86.43;97002.22;1820364;78;21042;-63
2022/09/17 08:58:51;;;;;;;4.62;3.10;;;;;;;14.36;86.07;97004.02;1794324;78;21005;-64
2022/09/17 09:01:57;;;;;;;5.53;3.10;;;;;;;14.38;86.22;97007.16;1787734;79;21023;-62
2022/09/17 09:04:45;;;;;;;3.95;2.83;;;;;;;14.42;85.01;97004.56;1784299;80;21229;-63
2022/09/17 09:07:19;;;;;;;7.72;3.20;;;;;;;14.42;85.10;97002.66;1812086;78;20923;-62
2022/09/17 09:09:50;;;;;;;4.90;2.70;;;;;;;14.44;85.37;97013.87;1805695;78;21514;-63
2022/09/17 09:12:24;;;;;;;5.42;2.77;;;;;;;14.47;85.59;97016.45;1788797;80;21113;-62
2022/09/17 09:14:59;;;;;;;3.20;2.85;;;;;;;14.51;85.77;97014.09;1788462;79;21007;-62
2022/09/17 09:17:30;;;;;;;5.03;2.90;;;;;;;14.53;85.33;97001.06;1785130;79;21294;-66
2022/09/17 09:19:58;;;;;;;4.83;2.70;;;;;;;14.59;85.30;96998.37;1791017;79;20983;-66
2022/09/17 09:22:39;;;;;;;5.15;2.87;;;;;;;14.70;85.17;96998.13;1792032;80;20888;-62
2022/09/17 09:25:22;;;;;;;4.85;3.10;;;;;;;14.74;85.22;97000.94;1785849;80;20895;-62
2022/09/17 09:28:32;;;;;;;5.90;2.98;;;;;;;14.79;85.07;97002.81;1788752;79;20990;-62
2022/09/17 09:31:26;;;;;;;6.95;3.50;;;;;;;14.84;85.07;96989.11;1789530;79;21069;-61
2022/09/17 09:33:53;;;;;;;4.53;3.80;;;;;;;14.91;84.51;96988.52;1774985;80;20848;-61
2022/09/17 09:36:20;;;;;;;5.42;3.55;;;;;;;14.93;83.90;96996.48;1842167;77;20960;-61
2022/09/17 09:38:58;;;;;;;4.15;2.77;;;;;;;15.00;83.86;97011.52;1847770;77;21008;-61
2022/09/17 09:41:30;;;;;;;5.80;3.22;;;;;;;15.07;83.04;97022.52;1836886;77;21335;-62
2022/09/17 09:44:05;;;;;;;8.53;4.50;;;;;;;15.08;82.83;97025.45;1843192;77;21201;-61
2022/09/17 09:47:00;;;;;;;4.35;3.15;;;;;;;15.12;83.04;97020.72;1856610;77;20906;-62
2022/09/17 09:49:38;;;;;;;4.10;2.83;;;;;;;15.13;82.23;97013.63;1856057;77;21045;-61
2022/09/17 09:52:44;;;;;;;4.12;2.80;;;;;;;15.18;82.59;97004.51;1848464;77;21065;-62
2022/09/17 09:55:22;;;;;;;4.97;2.70;;;;;;;15.27;82.30;97018.07;1845850;77;21465;-62
2022/09/17 09:57:53;;;;;;;4.10;2.55;;;;;;;15.36;82.50;97002.52;1831147;77;21846;-64
2022/09/17 10:00:30;;;;;;;5.42;3.00;;;;;;;15.50;81.92;97008.88;1785287;80;20987;-62
2022/09/17 10:03:14;;;;;;;4.95;2.70;;;;;;;15.56;81.67;97006.95;1778130;80;21541;-61
2022/09/17 10:06:03;;;;;;;6.20;3.10;;;;;;;15.62;79.58;97010.17;1824912;78;20939;-62
2022/09/17 10:08:33;;;;;;;4.05;2.77;;;;;;;15.54;78.83;97008.44;1835932;77;21505;-60
2022/09/17 10:11:03;;;;;;;5.22;2.80;;;;;;;15.43;78.18;97008.11;1838649;77;21633;-67
2022/09/17 10:13:34;;;;;;;4.70;2.17;;;;;;;15.41;78.13;97006.88;1849216;77;21494;-67
2022/09/17 10:16:20;;;;;;;3.47;2.52;;;;;;;15.45;78.17;97006.45;1849530;77;20868;-68
2022/09/17 10:18:48;;;;;;;3.72;2.42;;;;;;;15.59;78.70;97000.09;1848366;77;21641;-63
2022/09/17 10:21:36;;;;;;;5.17;2.67;;;;;;;15.78;78.66;96986.67;1847512;77;21446;-64
2022/09/17 10:24:06;;;;;;;4.45;2.70;;;;;;;15.95;78.83;96975.54;1840309;77;21062;-66
2022/09/17 10:26:35;;;;;;;3.75;3.02;;;;;;;16.11;76.14;96973.61;1838619;77;20932;-64
2022/09/17 10:29:04;;;;;;;5.55;2.80;;;;;;;16.16;75.10;96977.41;1841874;77;20856;-64
2022/09/17 10:31:54;;;;;;;4.08;2.42;;;;;;;16.26;75.60;96978.79;1841128;78;21363;-65
2022/09/17 10:34:26;;;;;;;3.85;2.30;;;;;;;16.37;74.30;96983.30;1848533;77;20924;-63
2022/09/17 10:36:58;;;;;;;3.83;2.55;;;;;;;16.37;72.17;96980.60;1846837;77;21060;-63
2022/09/17 10:39:37;;;;;;;2.72;1.95;;;;;;;16.43;71.60;96981.13;1847514;77;20970;-67
2022/09/17 10:42:18;;;;;;;2.65;2.30;;;;;;;16.50;71.13;96976.44;1841826;77;20910;-64
2022/09/17 10:44:57;;;;;;;5.87;2.55;;;;;;;16.60;71.14;96979.42;1852071;77;20915;-65
2022/09/17 10:47:32;;;;;;;6.42;2.65;;;;;;;16.73;71.01;96981.41;1848754;77;20952;-64
2022/09/17 10:50:07;;;;;;;4.30;2.10;;;;;;;16.82;71.05;96985.48;1841646;77;21073;-63
2022/09/17 10:52:43;;;;;;;8.28;2.27;;;;;;;16.94;70.18;96980.52;1826171;77;20845;-66
2022/09/17 10:55:17;;;;;;;3.40;2.05;;;;;;;17.01;69.63;96977.95;1839323;76;20927;-64
2022/09/17 10:58:06;;;;;;;2.60;1.87;;;;;;;17.06;66.83;96980.38;1842215;77;20996;-64
2022/09/17 11:01:00;;;;;;;2.37;2.08;;;;;;;17.00;66.23;96976.41;1849169;77;20872;-63
2022/09/17 11:03:56;;;;;;;5.50;2.20;;;;;;;16.96;66.42;96976.88;1848035;77;21224;-63
2022/09/17 11:06:50;;;;;;;4.62;2.20;;;;;;;17.02;67.09;96975.48;1813658;79;20845;-62
2022/09/17 11:09:41;;;;;;;3.17;2.27;;;;;;;17.17;67.46;96967.84;1847834;77;20990;-63
2022/09/17 11:12:37;;;;;;;7.30;2.25;;;;;;;17.29;67.13;96964.22;1844643;77;20916;-63
2022/09/17 11:15:29;;;;;;;2.17;1.87;;;;;;;17.59;66.78;96961.90;1822338;77;20860;-63
2022/09/17 11:18:30;;;;;;;4.55;2.25;;;;;;;17.85;64.94;96954.44;1848270;77;21194;-63
2022/09/17 11:21:14;;;;;;;4.03;2.08;;;;;;;18.01;65.06;96952.37;1776970;76;20947;-63
2022/09/17 11:24:33;;;;;;;2.95;1.85;;;;;;;18.17;64.33;96940.82;1836467;77;20900;-63
2022/09/17 11:27:38;;;;;;;3.67;1.95;;;;;;;18.22;63.19;96942.44;1837852;77;21514;-63
2022/09/17 11:30:11;;;;;;;5.87;2.12;;;;;;;18.16;63.10;96945.27;1841851;77;20916;-62
2022/09/17 11:33:07;;;;;;;2.35;1.80;;;;;;;18.17;62.38;96940.82;1832497;77;21216;-63
2022/09/17 11:35:49;;;;;;;3.62;2.20;;;;;;;18.17;62.47;96929.19;1844686;77;20955;-61
2022/09/17 11:38:27;;;;;;;4.08;2.08;;;;;;;18.25;62.43;96925.45;1838763;77;20931;-62
2022/09/17 11:41:17;;;;;;;2.27;1.70;;;;;;;18.37;61.88;96924.65;1846572;77;20927;-64
2022/09/17 11:43:52;;;;;;;5.25;1.95;;;;;;;18.50;61.04;96922.55;1837088;77;20935;-63
2022/09/17 11:46:23;;;;;;;4.62;2.10;;;;;;;18.62;60.34;96923.68;1847224;77;22171;-63
2022/09/17 11:49:04;;;;;;;2.83;1.92;;;;;;;18.69;60.05;96916.20;1847745;77;21010;-63
2022/09/17 11:51:37;;;;;;;2.12;1.65;;;;;;;18.64;59.76;96921.95;1847313;77;21008;-63
2022/09/17 11:54:42;;;;;;;3.62;1.87;;;;;;;18.46;59.73;96916.30;1848342;77;21410;-63
2022/09/17 11:57:31;;;;;;;5.40;1.90;;;;;;;18.37;59.80;96921.18;1847205;77;21046;-63
2022/09/17 12:00:09;;;;;;;5.22;2.10;;;;;;;18.33;60.25;96917.62;1848162;77;21245;-67
2022/09/17 12:03:08;;;;;;;4.80;1.87;;;;;;;18.36;60.23;96914.19;1838060;77;21094;-59
2022/09/17 12:05:54;;;;;;;3.60;1.70;;;;;;;18.40;58.71;96915.80;1841549;77;20923;-61
2022/09/17 12:08:27;;;;;;;3.47;1.80;;;;;;;18.37;58.81;96910.34;1817001;77;21369;-61
2022/09/17 12:11:14;;;;;;;2.52;1.55;;;;;;;18.38;58.37;96910.53;1821990;77;21406;-62
2022/09/17 12:13:57;;;;;;;3.15;2.02;;;;;;;18.38;58.46;96912.67;1817593;79;21266;-61
2022/09/17 12:16:35;;;;;;;3.70;1.87;;;;;;;18.38;59.09;96914.59;1817425;79;20864;-60
2022/09/17 12:19:36;;;;;;;4.37;1.70;;;;;;;18.37;59.14;96907.63;1787201;79;20867;-61
2022/09/17 12:22:16;;;;;;;2.17;1.62;;;;;;;18.36;58.76;96907.41;1855690;77;21343;-60
2022/09/17 12:24:44;;;;;;;3.52;1.90;;;;;;;18.24;58.51;96906.27;1833964;77;20871;-61
2022/09/17 12:27:35;;;;;;;4.87;2.05;;;;;;;18.20;57.93;96902.73;1849704;77;22131;-62
2022/09/17 12:30:17;;;;;;;3.42;2.08;;;;;;;18.12;56.94;96901.05;1846161;77;21401;-61
2022/09/17 12:33:04;;;;;;;2.75;1.80;;;;;;;18.09;57.73;96903.16;1847083;77;20844;-62
2022/09/17 12:36:01;;;;;;;5.37;2.00;;;;;;;18.29;59.03;96905.95;1843833;77;20915;-61
2022/09/17 12:38:57;;;;;;;4.95;1.80;;;;;;;18.42;58.36;96910.00;1846973;77;20958;-60
2022/09/17 12:41:57;;;;;;;2.83;2.05;;;;;;;18.33;58.14;96904.06;1854415;77;21069;-62
2022/09/17 12:44:39;;;;;;;3.15;1.62;;;;;;;18.19;59.09;96899.23;1857563;77;20951;-61
2022/09/17 12:47:47;;;;;;;2.10;1.60;;;;;;;18.18;59.76;96906.38;1857923;77;20895;-62
2022/09/17 12:50:25;;;;;;;5.95;1.72;;;;;;;18.20;58.98;96900.02;1785948;79;21504;-62
2022/09/17 12:53:23;;;;;;;2.98;1.75;;;;;;;18.21;58.96;96901.56;1785921;80;20988;-61
2022/09/17 12:56:11;;;;;;;3.85;1.82;;;;;;;18.19;57.82;96899.80;1842615;77;21293;-59
2022/09/17 12:58:47;;;;;;;3.20;1.70;;;;;;;18.15;58.30;96904.39;1858060;77;20978;-61
2022/09/17 13:01:35;;;;;;;3.85;1.82;;;;;;;18.12;57.48;96896.41;1846756;77;20864;-61
2022/09/17 13:04:42;;;;;;;2.55;1.80;;;;;;;18.12;57.18;96895.62;1858217;77;20904;-60
2022/09/17 13:07:35;;;;;;;3.20;1.70;;;;;;;18.14;56.89;96893.33;1858316;77;21418;-61
2022/09/17 13:10:15;;;;;;;4.08;1.80;;;;;;;18.15;58.33;96888.92;1858200;77;21116;-61
2022/09/17 13:13:08;;;;;;;5.33;1.80;;;;;;;18.18;58.44;96881.39;1858061;77;20918;-61
2022/09/17 13:15:59;;;;;;;2.45;1.60;;;;;;;18.18;57.57;96886.05;1858430;77;21419;-61
2022/09/17 13:19:16;;;;;;;2.95;1.98;;;;;;;18.14;57.67;96881.14;1858192;77;20845;-60
2022/09/17 13:21:56;;;;;;;2.45;1.70;;;;;;;18.05;57.55;96879.27;1858247;77;20872;-61
2022/09/17 13:24:24;;;;;;;2.80;1.70;;;;;;;18.00;58.00;96880.36;1846228;77;21203;-61
2022/09/17 13:26:53;;;;;;;3.65;1.90;;;;;;;17.95;57.87;96884.73;1858090;77;20907;-61
2022/09/17 13:29:46;;;;;;;2.27;1.82;;;;;;;17.87;58.16;96889.06;1858090;77;20958;-60
2022/09/17 13:32:40;;;;;;;3.92;2.00;;;;;;;17.80;58.39;96874.84;1816422;77;20868;-61
2022/09/17 13:38:01;;;;;;;2.85;1.72;;;;;;;17.72;59.19;96880.71;1858296;77;21041;-61
2022/09/17 13:40:33;;;;;;;2.35;1.82;;;;;;;17.72;59.14;96884.77;1858317;77;20880;-60
2022/09/17 13:43:09;;;;;;;2.20;1.72;;;;;;;17.66;59.44;96888.91;1858094;77;20912;-60
2022/09/17 13:46:03;;;;;;;2.47;1.92;;;;;;;17.57;59.20;96882.96;1858640;77;20879;-61
2022/09/17 13:48:32;;;;;;;2.52;1.90;;;;;;;17.51;60.15;96887.66;1858092;77;20970;-60
2022/09/17 13:51:31;;;;;;;4.75;1.72;;;;;;;17.47;60.67;96885.48;1824862;77;21177;-60
2022/09/17 13:54:01;;;;;;;2.60;1.95;;;;;;;17.42;61.11;96887.91;1851164;77;21509;-61
2022/09/17 13:56:40;;;;;;;3.50;1.90;;;;;;;17.39;61.99;96881.86;1858546;77;20939;-61
2022/09/17 13:59:10;;;;;;;2.22;1.77;;;;;;;17.42;62.31;96881.71;1858183;77;20883;-61
2022/09/17 14:02:12;;;;;;;4.67;1.92;;;;;;;17.43;62.14;96882.69;1857797;77;20872;-62
2022/09/17 14:04:45;;;;;;;2.85;2.05;;;;;;;17.44;61.86;96885.63;1788922;77;21513;-61
2022/09/17 14:07:27;;;;;;;3.95;2.10;;;;;;;17.39;61.19;96879.16;1858252;77;20864;-62
2022/09/17 14:09:56;;;;;;;4.42;2.50;;;;;;;17.36;61.42;96874.45;1858073;77;20856;-61
2022/09/17 14:12:50;;;;;;;3.62;2.40;;;;;;;17.31;61.16;96872.63;1858098;77;20964;-61
2022/09/17 14:15:38;;;;;;;2.77;2.00;;;;;;;17.20;61.43;96872.43;1858158;77;21306;-61
2022/09/17 14:18:27;;;;;;;3.25;1.98;;;;;;;17.11;62.36;96871.88;1855453;77;22065;-62
2022/09/17 14:21:13;;;;;;;2.50;1.92;;;;;;;17.03;62.38;96868.26;1857960;77;20895;-62
2022/09/17 14:23:46;;;;;;;2.15;1.90;;;;;;;16.97;63.32;96864.30;1857781;77;20955;-62
2022/09/17 14:26:33;;;;;;;2.87;1.92;;;;;;;16.90;63.59;96862.02;1858043;77;20922;-62
2022/09/17 14:29:21;;;;;;;4.05;2.15;;;;;;;16.85;63.90;96858.25;1857815;77;20875;-61
2022/09/17 14:31:47;;;;;;;4.90;2.40;;;;;;;16.80;64.80;96848.50;1857890;77;21270;-60
2022/09/17 14:34:21;;;;;;;4.72;2.92;;;;;;;16.75;66.05;96843.38;1858053;77;20856;-61
2022/09/17 14:36:47;;;;;;;4.87;2.92;;;;;;;16.71;66.27;96857.41;1858047;77;20970;-61
2022/09/17 14:39:22;;;;;;;5.92;3.30;;;;;;;16.62;66.43;96846.03;1858116;77;20883;-60
2022/09/17 14:41:48;;;;;;;3.90;3.00;;;;;;;16.57;67.29;96860.39;1858816;77;20919;-61
2022/09/17 14:44:21;;;;;;;6.42;2.75;;;;;;;16.52;66.80;96866.87;1858113;77;21161;-61
2022/09/17 14:47:01;;;;;;;4.17;2.95;;;;;;;16.47;66.93;96867.11;1858042;77;20997;-60
2022/09/17 14:49:34;;;;;;;4.90;3.40;;;;;;;16.44;67.32;96869.95;1858108;77;20849;-60
2022/09/17 14:52:01;;;;;;;4.35;3.00;;;;;;;16.42;68.05;96858.72;1857993;77;20999;-60
2022/09/17 14:54:29;;;;;;;5.22;3.35;;;;;;;16.43;68.04;96852.75;1857981;77;21089;-60
2022/09/17 14:57:01;;;;;;;5.72;3.15;;;;;;;16.42;68.27;96844.42;1858526;77;21064;-61
2022/09/17 14:59:51;;;;;;;4.03;2.87;;;;;;;16.38;68.64;96843.02;1858142;77;20942;-60
2022/09/17 15:02:46;;;;;;;3.95;2.60;;;;;;;16.34;68.56;96838.11;1858224;77;21458;-60
2022/09/17 15:05:19;;;;;;;4.30;2.98;;;;;;;16.27;70.27;96827.12;1856874;77;21003;-61
2022/09/17 15:07:46;;;;;;;3.98;2.62;;;;;;;16.15;71.12;96822.44;1858375;77;20872;-61
2022/09/17 15:10:19;;;;;;;2.80;2.42;;;;;;;16.03;71.64;96811.20;1849622;77;21890;-61
2022/09/17 15:12:46;;;;;;;3.52;2.65;;;;;;;15.92;72.52;96812.86;1849753;77;20911;-61
2022/09/17 15:15:18;;;;;;;7.92;2.90;;;;;;;15.83;72.92;96805.53;1849620;77;20873;-61
2022/09/17 15:17:47;;;;;;;6.20;3.77;;;;;;;15.75;73.63;96794.38;1849747;77;20904;-61
2022/09/17 15:20:23;;;;;;;9.28;5.40;;;;;;;15.71;74.81;96790.79;1849716;77;20884;-61
2022/09/17 15:23:08;;;;;;;8.50;5.47;;;;;;;15.71;76.15;96775.94;1849760;77;21211;-61
2022/09/17 15:25:34;;;;;;;8.13;5.42;;;;;;;15.74;77.36;96776.59;1806978;79;20905;-61
2022/09/17 15:28:07;;;;;;;7.28;4.85;;;;;;;15.76;77.89;96780.31;1773689;81;21015;-61
2022/09/17 15:30:33;;;;;;;8.25;4.47;;;;;;;15.77;78.35;96782.65;1779682;80;20919;-61
2022/09/17 15:33:00;;;;;;;10.10;4.90;;;;;;;15.76;79.17;96768.92;1849887;77;21512;-62
2022/09/17 15:35:32;;;;;;;9.80;4.92;;;;;;;15.75;79.98;96760.63;1849618;77;22032;-61
2022/09/17 15:38:20;;;;;;;8.43;6.92;;;;;;;15.72;80.25;96762.67;1849003;77;20970;-61
2022/09/17 15:40:47;;;;;;;8.85;6.83;;;;;;;15.69;80.90;96777.66;1849665;77;20975;-62
2022/09/17 15:43:29;;;;;;;15.23;7.65;;;;;;;15.64;81.37;96776.58;1849701;77;20920;-62
2022/09/17 15:45:59;;;;;;;15.20;7.30;;;;;;;15.56;81.73;96778.91;1849788;77;20936;-61
2022/09/17 15:48:36;;;;;;;12.33;7.28;;;;;;;15.51;82.28;96773.78;1849797;77;21382;-61
2022/09/17 15:51:05;;;;;;;10.80;6.80;;;;;;;15.50;82.77;96778.16;1849557;77;20887;-61
2022/09/17 15:53:34;;;;;;;13.20;7.90;;;;;;;15.44;83.04;96773.61;1849703;77;20829;-61
2022/09/17 15:56:11;;;;;;;13.68;8.48;;;;;;;15.36;83.84;96775.09;1849553;77;20970;-61
2022/09/17 15:58:49;;;;;;;15.43;9.13;;;;;;;15.24;84.49;96780.62;1835913;77;21014;-61
2022/09/17 16:01:49;;;;;;;15.13;8.55;;;;;;;15.11;84.91;96773.17;1849840;77;21359;-62
2022/09/17 16:04:26;;;;;;;10.80;7.42;;;;;;;14.98;85.45;96785.94;1849528;77;20833;-61
2022/09/17 16:07:25;;;;;;;10.98;6.75;;;;;;;14.91;86.18;96787.67;1849695;77;20832;-61
2022/09/17 16:09:52;;;;;;;13.22;7.58;;;;;;;14.87;86.69;96797.03;1855894;77;20938;-61
2022/09/17 16:12:24;;;;;;;11.00;6.65;;;;;;;14.85;86.93;96791.20;1857958;77;20919;-61
2022/09/17 16:14:54;;;;;;;12.80;6.62;;;;;;;14.82;87.27;96799.19;1857971;77;21849;-62
2022/09/17 16:17:31;;;;;;;9.68;6.42;;;;;;;14.76;87.73;96794.63;1857877;77;21423;-62
2022/09/17 16:19:58;;;;;;;9.75;6.62;;;;;;;14.71;87.74;96781.40;1857745;77;20828;-61
2022/09/17 16:22:25;;;;;;;9.48;6.92;;;;;;;14.62;88.03;96774.60;1857944;77;20903;-61
2022/09/17 16:24:52;;;;;;;10.13;6.37;;;;;;;14.54;88.38;96777.66;1858076;77;21473;-62
2022/09/17 16:27:23;;;;;;;8.33;5.20;;;;;;;14.50;88.78;96775.45;1858016;77;21101;-62
2022/09/17 16:29:51;;;;;;;6.12;4.72;;;;;;;14.51;88.91;96775.66;1858060;77;20959;-62
2022/09/17 16:32:18;;;;;;;10.50;5.75;;;;;;;14.48;89.09;96776.36;1858084;77;20986;-61
2022/09/17 16:34:45;;;;;;;10.50;6.40;;;;;;;14.43;89.27;96786.03;1858103;77;20876;-61
2022/09/17 16:37:12;;;;;;;7.03;5.30;;;;;;;14.41;89.48;96789.64;1858243;77;20906;-62
2022/09/17 16:39:39;;;;;;;6.83;4.12;;;;;;;14.41;89.62;96794.23;1858324;77;21861;-61
2022/09/17 16:42:06;;;;;;;7.28;4.95;;;;;;;14.42;89.56;96785.80;1858165;77;20868;-62
2022/09/17 16:44:34;;;;;;;9.95;5.40;;;;;;;14.34;89.26;96792.13;1858113;77;20860;-62
2022/09/17 16:47:01;;;;;;;13.72;6.20;;;;;;;14.29;89.38;96797.73;1858046;77;20963;-61
2022/09/17 16:49:27;;;;;;;9.25;6.33;;;;;;;14.27;89.51;96795.95;1858080;77;21029;-61
2022/09/17 16:51:54;;;;;;;10.58;6.83;;;;;;;14.27;89.59;96799.40;1858299;77;21800;-61
2022/09/17 16:54:20;;;;;;;15.38;8.35;;;;;;;14.27;89.77;96804.78;1858037;77;20958;-61
2022/09/17 16:56:47;;;;;;;14.45;9.23;;;;;;;14.25;89.88;96809.73;1858051;77;20880;-62
2022/09/17 16:59:14;;;;;;;14.85;9.70;;;;;;;14.23;90.03;96809.30;1858079;77;20992;-61
2022/09/17 17:01:41;;;;;;;24.80;12.95;;;;;;;14.23;90.28;96809.30;1858423;77;21509;-62
2022/09/17 17:04:07;;;;;;;23.18;14.80;;;;;;;14.23;90.77;96796.39;1858099;77;21118;-62
2022/09/17 17:06:34;;;;;;;28.40;16.50;;;;;;;14.25;91.29;96798.17;1858135;77;20871;-62
2022/09/17 17:09:01;;;;;;;21.60;15.72;;;;;;;14.27;91.67;96804.03;1852356;77;20951;-62
2022/09/17 17:11:28;;;;;;;27.02;16.10;;;;;;;14.25;91.99;96805.70;1838482;78;20971;-61
2022/09/17 17:13:57;;;;;;;21.80;15.32;;;;;;;14.24;92.30;96812.22;1838507;77;20837;-62
2022/09/17 17:16:24;;;;;;;24.12;13.80;;;;;;;14.23;92.54;96814.68;1838482;77;21102;-62
2022/09/17 17:18:52;;;;;;;20.85;13.83;;;;;;;14.25;92.67;96818.38;1838500;77;20963;-62
2022/09/17 17:21:20;;;;;;;27.13;16.52;;;;;;;14.24;92.92;96819.52;1838747;78;21462;-62
2022/09/17 17:23:46;;;;;;;31.90;19.65;;;;;;;14.23;93.19;96817.38;1838842;77;21391;-62
2022/09/17 17:26:16;;;;;;;39.23;20.97;;;;;;;14.25;93.40;96822.41;1838478;77;20904;-62
2022/09/17 17:28:43;;;;;;;46.13;28.57;;;;;;;14.27;93.35;96812.11;1838474;78;22013;-62
2022/09/17 17:31:10;;;;;;;34.92;21.50;;;;;;;14.29;93.42;96807.16;1838434;78;20877;-62
2022/09/17 17:33:37;;;;;;;32.73;22.65;;;;;;;14.30;93.54;96786.63;1838597;78;20869;-62
2022/09/17 17:36:05;;;;;;;24.05;14.60;;;;;;;14.33;93.77;96774.39;1838577;77;20873;-62
2022/09/17 17:38:31;;;;;;;19.35;12.60;;;;;;;14.36;93.69;96772.37;1838965;78;20884;-62
2022/09/17 17:41:10;;;;;;;18.48;10.05;;;;;;;14.30;93.18;96765.64;1838473;77;21985;-61
2022/09/17 17:43:37;;;;;;;13.22;8.40;;;;;;;14.23;93.01;96761.37;1838448;77;20896;-62
2022/09/17 17:46:08;;;;;;;11.38;7.92;;;;;;;14.12;92.84;96757.61;1838564;78;20869;-60
2022/09/17 17:48:35;;;;;;;11.22;8.28;;;;;;;14.01;92.90;96761.36;1838553;78;20924;-61
2022/09/17 17:51:07;;;;;;;14.68;8.78;;;;;;;13.99;93.06;96768.21;1838555;78;21384;-61
2022/09/17 17:53:35;;;;;;;12.63;8.63;;;;;;;13.98;93.33;96773.36;1838462;78;21233;-62
2022/09/17 17:56:05;;;;;;;10.72;7.53;;;;;;;13.96;93.43;96776.96;1838468;78;20892;-61
2022/09/17 17:58:33;;;;;;;11.30;7.20;;;;;;;13.93;93.55;96777.63;1838465;78;20869;-62
2022/09/17 18:00:59;;;;;;;10.65;7.70;;;;;;;13.92;93.62;96777.43;1838440;78;20956;-62
2022/09/17 18:03:26;;;;;;;11.45;8.23;;;;;;;13.92;94.01;96773.39;1838480;78;20912;-61
2022/09/17 18:05:56;;;;;;;13.53;9.20;;;;;;;13.90;94.34;96768.88;1838564;78;21106;-62
2022/09/17 18:08:23;;;;;;;18.17;9.75;;;;;;;13.90;94.54;96762.16;1838314;78;20911;-61
2022/09/17 18:10:54;;;;;;;14.13;9.85;;;;;;;13.92;94.67;96757.24;1847311;77;20919;-62
2022/09/17 18:13:22;;;;;;;28.05;19.05;;;;;;;13.91;94.75;96760.48;1849201;77;21478;-61
2022/09/17 18:15:54;;;;;;;22.45;12.63;;;;;;;13.93;95.02;96768.21;1849117;77;20919;-61
2022/09/17 18:18:22;;;;;;;16.42;11.53;;;;;;;13.91;95.25;96777.98;1849132;77;22028;-62
2022/09/17 18:20:53;;;;;;;27.75;17.30;;;;;;;13.92;95.32;96788.20;1849118;77;20963;-62
2022/09/17 18:23:19;;;;;;;22.40;12.18;;;;;;;13.91;95.53;96782.02;1848919;77;20959;-62
2022/09/17 18:25:55;;;;;;;22.90;14.50;;;;;;;13.91;95.66;96764.52;1849072;77;21391;-61
2022/09/17 18:28:22;;;;;;;32.00;16.82;;;;;;;13.90;95.65;96763.50;1848817;77;21055;-62
2022/09/17 18:30:56;;;;;;;20.77;12.07;;;;;;;13.88;95.94;96764.41;1849101;77;21658;-60
2022/09/17 18:33:25;;;;;;;18.87;11.48;;;;;;;13.86;95.92;96761.28;1849512;77;21442;-61
2022/09/17 18:35:56;;;;;;;17.15;10.45;;;;;;;13.86;95.78;96768.00;1849177;77;21462;-61
2022/09/17 18:38:23;;;;;;;15.70;10.65;;;;;;;13.81;95.74;96773.62;1849169;77;21423;-63
2022/09/17 18:40:50;;;;;;;19.82;10.88;;;;;;;13.77;95.85;96773.53;1849096;77;20892;-63
2022/09/17 18:43:16;;;;;;;17.05;11.93;;;;;;;13.75;95.92;96776.34;1849076;77;21047;-62
2022/09/17 18:45:45;;;;;;;13.83;9.28;;;;;;;13.73;96.18;96771.86;1849101;77;21345;-63
2022/09/17 18:48:11;;;;;;;12.75;8.53;;;;;;;13.70;96.36;96766.03;1847260;77;20912;-62
2022/09/17 18:50:38;;;;;;;13.13;8.60;;;;;;;13.71;96.40;96768.93;1849211;77;21521;-63
2022/09/17 18:53:05;;;;;;;14.28;9.55;;;;;;;13.75;96.27;96773.09;1849094;77;20866;-63
2022/09/17 18:55:32;;;;;;;11.33;8.10;;;;;;;13.77;96.32;96783.50;1849156;77;21667;-62
2022/09/17 18:58:00;;;;;;;12.23;7.70;;;;;;;13.75;96.47;96800.55;1848981;77;21051;-61
2022/09/17 19:00:27;;;;;;;9.75;6.60;;;;;;;13.76;96.43;96808.83;1849050;77;21003;-61
2022/09/17 19:02:54;;;;;;;20.25;10.53;;;;;;;13.77;96.35;96808.52;1849231;77;21383;-62
2022/09/17 19:05:20;;;;;;;28.07;16.90;;;;;;;13.78;96.14;96805.27;1849086;77;20966;-62
2022/09/17 19:07:47;;;;;;;41.05;23.07;;;;;;;13.78;96.10;96799.89;1849356;77;21406;-62
2022/09/17 19:10:15;;;;;;;36.23;21.50;;;;;;;13.77;96.21;96800.44;1849051;77;21416;-62
2022/09/17 19:12:44;;;;;;;38.30;21.23;;;;;;;13.76;96.33;96803.45;1849942;77;20872;-61
2022/09/17 19:15:11;;;;;;;37.75;22.15;;;;;;;13.73;96.53;96800.31;1849646;77;20966;-61
2022/09/17 19:17:37;;;;;;;35.23;22.62;;;;;;;13.72;96.75;96784.52;1849686;77;20938;-61
2022/09/17 19:20:06;;;;;;;31.65;21.57;;;;;;;13.69;96.89;96783.29;1849754;77;21105;-61
2022/09/17 19:22:33;;;;;;;32.95;22.87;;;;;;;13.68;96.97;96776.33;1849586;77;20872;-63
2022/09/17 19:25:00;;;;;;;31.50;22.22;;;;;;;13.70;97.11;96774.11;1849757;77;20931;-63
2022/09/17 19:27:26;;;;;;;33.08;21.60;;;;;;;13.69;97.05;96764.45;1849718;77;20899;-62
2022/09/17 19:29:56;;;;;;;33.60;22.32;;;;;;;13.68;97.05;96756.14;1811588;77;20923;-62
2022/09/17 19:32:23;;;;;;;36.77;24.10;;;;;;;13.64;97.11;96744.50;1849731;77;21113;-62
2022/09/17 19:34:51;;;;;;;35.30;22.07;;;;;;;13.61;97.40;96739.80;1849568;77;20975;-62
2022/09/17 19:37:18;;;;;;;32.98;23.90;;;;;;;13.60;97.78;96735.55;1849620;77;21036;-62
2022/09/17 19:39:45;;;;;;;32.23;22.35;;;;;;;13.59;97.89;96729.94;1849739;77;20872;-62
2022/09/17 19:42:11;;;;;;;34.23;23.60;;;;;;;13.60;97.86;96726.14;1850082;77;20916;-61
2022/09/17 19:44:38;;;;;;;33.45;21.97;;;;;;;13.53;98.13;96721.89;1849935;77;21163;-61
2022/09/17 19:47:05;;;;;;;21.45;14.83;;;;;;;13.46;98.38;96713.61;1849569;77;20896;-61
2022/09/17 19:49:32;;;;;;;22.35;17.62;;;;;;;13.41;98.60;96711.15;1849933;77;21395;-62
2022/09/17 19:51:59;;;;;;;20.75;13.38;;;;;;;13.37;99.00;96719.68;1849589;77;20916;-62
2022/09/17 19:54:25;;;;;;;16.30;11.28;;;;;;;13.30;99.27;96722.70;1849645;77;20868;-63
2022/09/17 19:56:52;;;;;;;14.95;7.97;;;;;;;13.25;99.68;96729.09;1849739;77;21164;-62
2022/09/17 19:59:19;;;;;;;11.70;7.50;;;;;;;13.24;99.73;96723.48;1849634;77;20963;-62
2022/09/17 20:01:46;;;;;;;13.43;8.40;;;;;;;13.25;99.97;96717.00;1849586;77;21319;-62
2022/09/17 20:04:14;;;;;;;17.12;11.55;;;;;;;13.21;100.00;96705.36;1849602;77;21387;-62
2022/09/17 20:06:41;;;;;;;17.07;12.50;;;;;;;13.18;100.00;96706.02;1849831;77;21455;-62
2022/09/17 20:09:08;;;;;;;20.08;14.13;;;;;;;13.16;100.00;96693.48;1849675;77;21110;-61
2022/09/17 20:11:38;;;;;;;21.70;14.98;;;;;;;13.15;100.00;96688.42;1849316;77;21025;-61
2022/09/17 20:14:07;;;;;;;15.50;11.20;;;;;;;13.13;100.00;96690.12;1826113;77;20907;-61
2022/09/17 20:16:35;;;;;;;18.02;11.43;;;;;;;13.12;100.00;96679.13;1849122;77;20829;-61
2022/09/17 20:19:03;;;;;;;10.80;7.78;;;;;;;13.11;100.00;96686.98;1849035;77;20959;-62